createdAt,value
2023-01-25T00:12:14.460Z,2.08
2023-01-25T00:16:43.922Z,2.07
2023-01-25T00:21:14.056Z,2.06
2023-01-25T00:39:42.645Z,2.16
2023-01-25T00:44:12.116Z,2.15
2023-01-25T00:48:26.211Z,2.16
2023-01-25T00:52:54.812Z,2.16
2023-01-25T00:57:25.463Z,2.16
2023-01-25T01:01:49.455Z,2.16
2023-01-25T01:06:19.587Z,2.16
2023-01-25T01:27:55.257Z,2.18
2023-01-25T01:32:16.849Z,2.20
2023-01-25T01:36:49.316Z,2.20
2023-01-25T01:58:24.278Z,2.12
2023-01-25T02:02:53.513Z,2.07
2023-01-25T02:07:41.945Z,2.07
2023-01-25T02:33:54.327Z,2.13
2023-01-25T02:38:14.546Z,2.15
2023-01-25T02:42:36.568Z,2.16
2023-01-25T02:59:28.317Z,2.12
2023-01-25T03:03:57.697Z,2.06
2023-01-25T03:08:26.867Z,1.98
2023-01-25T03:12:57.299Z,1.99
2023-01-25T03:35:18.592Z,2.06
2023-01-25T03:39:37.632Z,2.08
2023-01-25T03:44:06.939Z,2.10
2023-01-25T04:09:52.448Z,2.01
2023-01-25T04:14:10.230Z,2.00
2023-01-25T04:23:36.697Z,1.88
2023-01-25T04:49:08.453Z,1.92
2023-01-25T04:53:26.854Z,1.92
2023-01-25T05:15:14.186Z,1.91
2023-01-25T05:19:43.501Z,1.87
2023-01-25T05:24:12.448Z,1.80
2023-01-25T05:28:42.569Z,1.79
2023-01-25T05:33:20.641Z,1.79
2023-01-25T05:37:42.675Z,1.79
2023-01-25T05:55:04.229Z,1.84
2023-01-25T05:59:34.135Z,1.82
2023-01-25T06:03:46.145Z,1.84
2023-01-25T06:08:16.526Z,1.86
2023-01-25T06:34:04.517Z,1.77
2023-01-25T06:38:36.855Z,1.77
2023-01-25T06:43:06.458Z,1.75
2023-01-25T06:47:35.670Z,1.77
2023-01-25T06:51:48.391Z,1.81
2023-01-25T07:21:30.665Z,1.88
2023-01-25T07:25:48.181Z,1.89
2023-01-25T07:30:17.499Z,1.91
2023-01-25T07:34:47.773Z,1.93
2023-01-25T07:39:17.038Z,1.93
2023-01-25T07:43:04.911Z,1.91
2023-01-25T08:10:01.757Z,2.02
2023-01-25T08:14:31.218Z,2.03
2023-01-25T08:19:01.011Z,2.03
2023-01-25T08:23:22.848Z,2.02
2023-01-25T08:36:03.824Z,2.03
2023-01-25T08:40:35.192Z,1.98
2023-01-25T08:45:08.577Z,1.99
2023-01-25T08:49:37.980Z,2.00
2023-01-25T08:54:02.731Z,1.99
2023-01-25T08:58:33.120Z,2.03
2023-01-25T09:02:55.471Z,2.00
2023-01-25T09:07:08.704Z,1.98
2023-01-25T09:29:31.218Z,2.09
2023-01-25T09:33:40.703Z,2.12
2023-01-25T09:37:54.638Z,2.10
2023-01-25T09:42:23.505Z,2.15
2023-01-25T09:46:56.864Z,2.17
2023-01-25T09:51:33.093Z,2.18
2023-01-25T09:56:02.397Z,2.21
2023-01-25T10:17:22.149Z,2.35
2023-01-25T10:21:17.558Z,2.37
2023-01-25T10:26:05.195Z,2.41
2023-01-25T10:30:34.032Z,2.44
2023-01-25T10:35:15.624Z,2.44
2023-01-25T10:39:54.185Z,2.44
2023-01-25T11:01:11.833Z,2.60
2023-01-25T11:05:41.062Z,2.60
2023-01-25T11:10:22.570Z,2.63
2023-01-25T11:14:42.983Z,2.59
2023-01-25T11:18:56.364Z,2.61
2023-01-25T11:23:32.369Z,2.65
2023-01-25T11:28:21.304Z,2.66
2023-01-25T11:56:36.942Z,2.87
2023-01-25T12:01:07.883Z,2.84
2023-01-25T12:05:47.056Z,2.87
2023-01-25T12:10:23.882Z,2.91
2023-01-25T12:15:02.103Z,2.96
2023-01-25T12:19:30.127Z,2.98
2023-01-25T12:32:41.595Z,3.01
2023-01-25T12:37:17.870Z,2.98
2023-01-25T12:41:56.279Z,2.93
2023-01-25T12:46:15.478Z,2.91
2023-01-25T12:50:41.248Z,2.92
2023-01-25T12:54:43.027Z,2.90
2023-01-25T13:20:59.622Z,2.84
2023-01-25T13:25:44.243Z,2.80
2023-01-25T13:30:40.803Z,2.80
2023-01-25T13:39:27.043Z,2.82
2023-01-25T13:44:00.895Z,2.79
2023-01-25T13:48:42.150Z,2.80
2023-01-25T13:53:25.679Z,2.80
2023-01-25T13:57:55.822Z,2.80
2023-01-25T14:01:56.292Z,2.77
2023-01-25T14:06:24.150Z,2.66
2023-01-25T14:10:43.230Z,2.61
2023-01-25T14:24:49.762Z,2.51
2023-01-25T14:29:19.025Z,2.47
2023-01-25T14:34:06.382Z,2.47
2023-01-25T14:52:21.398Z,2.35
2023-01-25T14:57:02.255Z,2.31
2023-01-25T15:01:34.482Z,2.26
2023-01-25T15:23:15.553Z,2.24
2023-01-25T15:27:44.370Z,2.18
2023-01-25T15:32:03.553Z,2.14
2023-01-25T15:36:33.808Z,2.09
2023-01-25T15:41:01.619Z,2.06
2023-01-25T16:04:54.409Z,2.17
2023-01-25T16:09:23.305Z,2.17
2023-01-25T16:13:27.687Z,2.15
2023-01-25T16:17:57.751Z,2.14
2023-01-25T16:39:37.640Z,2.08
2023-01-25T16:44:07.004Z,2.09
2023-01-25T16:48:36.280Z,2.10
2023-01-25T16:52:49.498Z,2.06
2023-01-25T17:12:31.553Z,2.17
2023-01-25T17:17:00.825Z,2.15
2023-01-25T17:21:38.174Z,2.08
2023-01-25T17:25:59.217Z,2.03
2023-01-25T17:30:22.368Z,2.02
2023-01-25T17:34:54.002Z,2.05
2023-01-25T18:01:27.871Z,2.11
2023-01-25T18:05:57.164Z,2.10
2023-01-25T18:10:26.582Z,2.13
2023-01-25T18:18:36.343Z,2.16
2023-01-25T18:22:42.226Z,2.14
2023-01-25T18:31:21.121Z,2.16
2023-01-25T18:35:51.008Z,2.17
2023-01-25T18:59:23.885Z,2.20
2023-01-25T19:03:37.627Z,2.14
2023-01-25T19:08:07.320Z,2.09
2023-01-25T19:12:09.097Z,2.07
2023-01-25T19:16:22.254Z,2.02
2023-01-25T19:20:14.933Z,1.95
2023-01-25T19:37:15.069Z,1.84
2023-01-25T19:41:14.427Z,1.85
2023-01-25T19:45:18.173Z,1.87
2023-01-25T19:49:47.496Z,1.85
2023-01-25T20:11:02.216Z,1.83
2023-01-25T20:15:31.486Z,1.75
2023-01-25T20:19:53.590Z,1.75
2023-01-25T20:24:24.314Z,1.74
2023-01-25T20:28:54.580Z,1.77
2023-01-25T21:35:25.423Z,1.87
2023-01-25T21:39:54.818Z,1.86
2023-01-25T21:44:22.738Z,1.79
2023-01-25T21:48:41.899Z,1.76
2023-01-25T21:53:02.698Z,1.76
2023-01-25T21:56:29.638Z,1.74
2023-01-25T22:00:50.389Z,1.75
2023-01-25T22:05:05.696Z,1.74
2023-01-25T22:08:36.172Z,1.72
2023-01-25T22:11:49.910Z,1.70
2023-01-25T22:16:03.218Z,1.68
2023-01-25T22:20:32.555Z,1.65
2023-01-25T22:24:57.285Z,1.63
2023-01-25T22:59:25.641Z,1.68
2023-01-25T23:03:54.439Z,1.65
2023-01-25T23:08:23.738Z,1.65
2023-01-25T23:12:54.128Z,1.66
2023-01-25T23:21:14.597Z,1.73
2023-01-25T23:25:34.286Z,1.72
2023-01-25T23:33:56.531Z,1.70
2023-01-25T23:38:06.628Z,1.62
2023-01-25T23:42:36.051Z,1.50
